sensor_id;sensor_type;location;lat;lon;timestamp;temperature;humidity
48579;DHT22;34357;51.948;6.132;2024-02-15T00:01:04;12.00;95.90
48579;DHT22;34357;51.948;6.132;2024-02-15T00:03:31;12.00;95.90
48579;DHT22;34357;51.948;6.132;2024-02-15T00:06:01;12.00;95.90
48579;DHT22;34357;51.948;6.132;2024-02-15T00:08:29;12.00;95.90
48579;DHT22;34357;51.948;6.132;2024-02-15T00:10:55;12.00;95.90
48579;DHT22;34357;51.948;6.132;2024-02-15T00:13:21;12.00;95.80
48579;DHT22;34357;51.948;6.132;2024-02-15T00:15:48;11.90;95.70
48579;DHT22;34357;51.948;6.132;2024-02-15T00:18:15;11.90;95.80
48579;DHT22;34357;51.948;6.132;2024-02-15T00:20:41;11.90;95.70
48579;DHT22;34357;51.948;6.132;2024-02-15T00:23:09;11.90;95.70
48579;DHT22;34357;51.948;6.132;2024-02-15T00:25:36;12.00;95.80
48579;DHT22;34357;51.948;6.132;2024-02-15T00:28:03;11.90;95.70
48579;DHT22;34357;51.948;6.132;2024-02-15T00:30:29;11.90;95.70
48579;DHT22;34357;51.948;6.132;2024-02-15T00:32:55;11.90;95.70
48579;DHT22;34357;51.948;6.132;2024-02-15T00:35:21;12.00;95.70
48579;DHT22;34357;51.948;6.132;2024-02-15T00:37:47;12.00;95.60
48579;DHT22;34357;51.948;6.132;2024-02-15T00:40:15;11.90;95.60
48579;DHT22;34357;51.948;6.132;2024-02-15T00:42:41;11.90;95.60
48579;DHT22;34357;51.948;6.132;2024-02-15T00:45:07;11.90;95.60
48579;DHT22;34357;51.948;6.132;2024-02-15T00:47:35;12.00;95.60
48579;DHT22;34357;51.948;6.132;2024-02-15T00:50:01;11.90;95.50
48579;DHT22;34357;51.948;6.132;2024-02-15T00:52:28;11.90;95.50
48579;DHT22;34357;51.948;6.132;2024-02-15T00:54:56;11.90;95.50
48579;DHT22;34357;51.948;6.132;2024-02-15T00:57:22;11.90;95.50
48579;DHT22;34357;51.948;6.132;2024-02-15T00:59:48;11.90;95.50
48579;DHT22;34357;51.948;6.132;2024-02-15T01:02:14;11.90;95.50
48579;DHT22;34357;51.948;6.132;2024-02-15T01:04:40;11.90;95.60
48579;DHT22;34357;51.948;6.132;2024-02-15T01:07:08;11.80;95.50
48579;DHT22;34357;51.948;6.132;2024-02-15T01:09:34;11.90;95.60
48579;DHT22;34357;51.948;6.132;2024-02-15T01:12:00;11.90;95.50
48579;DHT22;34357;51.948;6.132;2024-02-15T01:14:26;11.90;95.50
48579;DHT22;34357;51.948;6.132;2024-02-15T01:16:56;11.90;95.60
48579;DHT22;34357;51.948;6.132;2024-02-15T01:19:22;11.90;95.60
48579;DHT22;34357;51.948;6.132;2024-02-15T01:21:48;11.90;95.60
48579;DHT22;34357;51.948;6.132;2024-02-15T01:24:14;11.90;95.60
48579;DHT22;34357;51.948;6.132;2024-02-15T01:26:40;11.90;95.60
48579;DHT22;34357;51.948;6.132;2024-02-15T01:29:06;11.90;95.70
48579;DHT22;34357;51.948;6.132;2024-02-15T01:31:32;11.90;95.70
48579;DHT22;34357;51.948;6.132;2024-02-15T01:33:58;11.90;95.70
48579;DHT22;34357;51.948;6.132;2024-02-15T01:36:23;11.90;95.60
48579;DHT22;34357;51.948;6.132;2024-02-15T01:38:50;11.90;95.60
48579;DHT22;34357;51.948;6.132;2024-02-15T01:41:16;11.90;95.70
48579;DHT22;34357;51.948;6.132;2024-02-15T01:43:45;11.90;95.70
48579;DHT22;34357;51.948;6.132;2024-02-15T01:46:11;11.90;95.70
48579;DHT22;34357;51.948;6.132;2024-02-15T01:48:39;11.90;95.70
48579;DHT22;34357;51.948;6.132;2024-02-15T01:51:06;11.90;95.70
48579;DHT22;34357;51.948;6.132;2024-02-15T01:53:32;11.90;95.70
48579;DHT22;34357;51.948;6.132;2024-02-15T01:55:59;11.90;95.70
48579;DHT22;34357;51.948;6.132;2024-02-15T01:58:28;11.90;95.60
48579;DHT22;34357;51.948;6.132;2024-02-15T02:01:00;11.90;95.60
48579;DHT22;34357;51.948;6.132;2024-02-15T02:03:27;11.90;95.60
48579;DHT22;34357;51.948;6.132;2024-02-15T02:05:53;11.90;95.60
48579;DHT22;34357;51.948;6.132;2024-02-15T02:08:18;11.90;95.60
48579;DHT22;34357;51.948;6.132;2024-02-15T02:10:44;11.90;95.50
48579;DHT22;34357;51.948;6.132;2024-02-15T02:13:11;11.90;95.50
48579;DHT22;34357;51.948;6.132;2024-02-15T02:15:38;11.90;95.50
48579;DHT22;34357;51.948;6.132;2024-02-15T02:18:04;11.90;95.40
48579;DHT22;34357;51.948;6.132;2024-02-15T02:20:35;11.90;95.50
48579;DHT22;34357;51.948;6.132;2024-02-15T02:23:09;11.90;95.40
48579;DHT22;34357;51.948;6.132;2024-02-15T02:25:38;11.90;95.40
48579;DHT22;34357;51.948;6.132;2024-02-15T02:28:05;11.80;95.50
48579;DHT22;34357;51.948;6.132;2024-02-15T02:30:32;11.90;95.50
48579;DHT22;34357;51.948;6.132;2024-02-15T02:32:58;11.90;95.40
48579;DHT22;34357;51.948;6.132;2024-02-15T02:35:25;11.90;95.40
48579;DHT22;34357;51.948;6.132;2024-02-15T02:37:51;11.80;95.30
48579;DHT22;34357;51.948;6.132;2024-02-15T02:40:20;11.80;95.40
48579;DHT22;34357;51.948;6.132;2024-02-15T02:42:51;11.80;95.40
48579;DHT22;34357;51.948;6.132;2024-02-15T02:45:18;11.80;95.30
48579;DHT22;34357;51.948;6.132;2024-02-15T02:47:49;11.80;95.30
48579;DHT22;34357;51.948;6.132;2024-02-15T02:50:15;11.80;95.30
48579;DHT22;34357;51.948;6.132;2024-02-15T02:52:41;11.80;95.30
48579;DHT22;34357;51.948;6.132;2024-02-15T02:55:07;11.80;95.30
48579;DHT22;34357;51.948;6.132;2024-02-15T02:57:40;11.80;95.30
48579;DHT22;34357;51.948;6.132;2024-02-15T03:00:07;11.80;95.30
48579;DHT22;34357;51.948;6.132;2024-02-15T03:02:34;11.80;95.20
48579;DHT22;34357;51.948;6.132;2024-02-15T03:05:07;11.80;95.20
48579;DHT22;34357;51.948;6.132;2024-02-15T03:07:34;11.80;95.20
48579;DHT22;34357;51.948;6.132;2024-02-15T03:10:01;11.70;95.20
48579;DHT22;34357;51.948;6.132;2024-02-15T03:12:28;11.70;95.20
48579;DHT22;34357;51.948;6.132;2024-02-15T03:14:55;11.70;95.20
48579;DHT22;34357;51.948;6.132;2024-02-15T03:17:23;11.80;95.20
48579;DHT22;34357;51.948;6.132;2024-02-15T03:19:48;11.70;95.10
48579;DHT22;34357;51.948;6.132;2024-02-15T03:22:14;11.70;95.20
48579;DHT22;34357;51.948;6.132;2024-02-15T03:24:41;11.70;95.20
48579;DHT22;34357;51.948;6.132;2024-02-15T03:27:07;11.70;95.20
48579;DHT22;34357;51.948;6.132;2024-02-15T03:29:34;11.70;95.10
48579;DHT22;34357;51.948;6.132;2024-02-15T03:32:02;11.60;95.20
48579;DHT22;34357;51.948;6.132;2024-02-15T03:34:30;11.60;95.10
48579;DHT22;34357;51.948;6.132;2024-02-15T03:36:57;11.60;95.10
48579;DHT22;34357;51.948;6.132;2024-02-15T03:39:23;11.60;95.20
48579;DHT22;34357;51.948;6.132;2024-02-15T03:41:50;11.60;95.10
48579;DHT22;34357;51.948;6.132;2024-02-15T03:44:17;11.60;95.20
48579;DHT22;34357;51.948;6.132;2024-02-15T03:46:44;11.60;95.10
48579;DHT22;34357;51.948;6.132;2024-02-15T03:49:19;11.60;95.10
48579;DHT22;34357;51.948;6.132;2024-02-15T03:51:45;11.60;95.10
48579;DHT22;34357;51.948;6.132;2024-02-15T03:54:12;11.60;95.10
48579;DHT22;34357;51.948;6.132;2024-02-15T03:56:49;11.70;95.20
48579;DHT22;34357;51.948;6.132;2024-02-15T03:59:21;11.60;95.10
48579;DHT22;34357;51.948;6.132;2024-02-15T04:01:53;11.70;95.10
48579;DHT22;34357;51.948;6.132;2024-02-15T04:04:19;11.70;95.00
48579;DHT22;34357;51.948;6.132;2024-02-15T04:06:51;11.60;95.00
48579;DHT22;34357;51.948;6.132;2024-02-15T04:09:18;11.60;95.00
48579;DHT22;34357;51.948;6.132;2024-02-15T04:11:49;11.70;95.00
48579;DHT22;34357;51.948;6.132;2024-02-15T04:14:19;11.70;95.00
48579;DHT22;34357;51.948;6.132;2024-02-15T04:16:45;11.70;94.80
48579;DHT22;34357;51.948;6.132;2024-02-15T04:19:11;11.80;94.90
48579;DHT22;34357;51.948;6.132;2024-02-15T04:21:38;11.70;94.80
48579;DHT22;34357;51.948;6.132;2024-02-15T04:24:06;11.60;94.80
48579;DHT22;34357;51.948;6.132;2024-02-15T04:26:32;11.60;94.80
48579;DHT22;34357;51.948;6.132;2024-02-15T04:28:59;11.60;94.70
48579;DHT22;34357;51.948;6.132;2024-02-15T04:31:25;11.70;94.80
48579;DHT22;34357;51.948;6.132;2024-02-15T04:33:54;11.60;94.70
48579;DHT22;34357;51.948;6.132;2024-02-15T04:36:21;11.60;94.70
48579;DHT22;34357;51.948;6.132;2024-02-15T04:38:51;11.60;94.80
48579;DHT22;34357;51.948;6.132;2024-02-15T04:41:18;11.60;94.70
48579;DHT22;34357;51.948;6.132;2024-02-15T04:43:49;11.70;94.70
48579;DHT22;34357;51.948;6.132;2024-02-15T04:46:15;11.70;94.60
48579;DHT22;34357;51.948;6.132;2024-02-15T04:48:42;11.70;94.50
48579;DHT22;34357;51.948;6.132;2024-02-15T04:51:09;11.70;94.60
48579;DHT22;34357;51.948;6.132;2024-02-15T04:53:36;11.70;94.40
48579;DHT22;34357;51.948;6.132;2024-02-15T04:56:05;11.70;94.50
48579;DHT22;34357;51.948;6.132;2024-02-15T04:58:35;11.80;94.40
48579;DHT22;34357;51.948;6.132;2024-02-15T05:01:03;11.70;94.30
48579;DHT22;34357;51.948;6.132;2024-02-15T05:03:33;11.80;94.20
48579;DHT22;34357;51.948;6.132;2024-02-15T05:06:01;11.80;94.20
48579;DHT22;34357;51.948;6.132;2024-02-15T05:08:29;11.80;94.10
48579;DHT22;34357;51.948;6.132;2024-02-15T05:10:57;11.80;94.00
48579;DHT22;34357;51.948;6.132;2024-02-15T05:13:26;11.90;93.90
48579;DHT22;34357;51.948;6.132;2024-02-15T05:15:52;11.90;93.90
48579;DHT22;34357;51.948;6.132;2024-02-15T05:18:18;11.90;93.80
48579;DHT22;34357;51.948;6.132;2024-02-15T05:20:44;11.90;93.80
48579;DHT22;34357;51.948;6.132;2024-02-15T05:23:09;11.80;93.80
48579;DHT22;34357;51.948;6.132;2024-02-15T05:25:35;11.90;94.00
48579;DHT22;34357;51.948;6.132;2024-02-15T05:28:01;11.90;93.90
48579;DHT22;34357;51.948;6.132;2024-02-15T05:30:29;11.90;94.10
48579;DHT22;34357;51.948;6.132;2024-02-15T05:32:58;11.80;94.10
48579;DHT22;34357;51.948;6.132;2024-02-15T05:35:24;11.80;94.30
48579;DHT22;34357;51.948;6.132;2024-02-15T05:37:50;11.70;94.40
48579;DHT22;34357;51.948;6.132;2024-02-15T05:40:18;11.70;94.40
48579;DHT22;34357;51.948;6.132;2024-02-15T05:42:45;11.70;94.60
48579;DHT22;34357;51.948;6.132;2024-02-15T05:47:55;11.70;94.70
48579;DHT22;34357;51.948;6.132;2024-02-15T05:50:21;11.70;94.70
48579;DHT22;34357;51.948;6.132;2024-02-15T05:52:48;11.70;94.80
48579;DHT22;34357;51.948;6.132;2024-02-15T05:55:14;11.70;94.90
48579;DHT22;34357;51.948;6.132;2024-02-15T05:57:45;11.70;94.90
48579;DHT22;34357;51.948;6.132;2024-02-15T06:00:11;11.60;94.90
48579;DHT22;34357;51.948;6.132;2024-02-15T06:02:37;11.70;95.00
48579;DHT22;34357;51.948;6.132;2024-02-15T06:05:04;11.70;95.00
48579;DHT22;34357;51.948;6.132;2024-02-15T06:07:30;11.60;95.10
48579;DHT22;34357;51.948;6.132;2024-02-15T06:09:59;11.60;95.10
48579;DHT22;34357;51.948;6.132;2024-02-15T06:12:29;11.60;95.10
48579;DHT22;34357;51.948;6.132;2024-02-15T06:14:55;11.60;95.10
48579;DHT22;34357;51.948;6.132;2024-02-15T06:17:21;11.60;95.10
48579;DHT22;34357;51.948;6.132;2024-02-15T06:19:46;11.60;95.20
48579;DHT22;34357;51.948;6.132;2024-02-15T06:22:12;11.50;95.20
48579;DHT22;34357;51.948;6.132;2024-02-15T06:24:38;11.50;95.30
48579;DHT22;34357;51.948;6.132;2024-02-15T06:27:05;11.50;95.30
48579;DHT22;34357;51.948;6.132;2024-02-15T06:29:31;11.50;95.40
48579;DHT22;34357;51.948;6.132;2024-02-15T06:32:15;11.50;95.50
48579;DHT22;34357;51.948;6.132;2024-02-15T06:35:00;11.50;95.50
48579;DHT22;34357;51.948;6.132;2024-02-15T06:37:44;11.50;95.50
48579;DHT22;34357;51.948;6.132;2024-02-15T06:40:28;11.50;95.60
48579;DHT22;34357;51.948;6.132;2024-02-15T06:42:56;11.50;95.50
48579;DHT22;34357;51.948;6.132;2024-02-15T06:45:22;11.50;95.60
48579;DHT22;34357;51.948;6.132;2024-02-15T06:47:48;11.60;95.60
48579;DHT22;34357;51.948;6.132;2024-02-15T06:50:14;11.60;95.60
48579;DHT22;34357;51.948;6.132;2024-02-15T06:52:40;11.60;95.60
48579;DHT22;34357;51.948;6.132;2024-02-15T06:55:07;11.60;95.70
48579;DHT22;34357;51.948;6.132;2024-02-15T06:57:34;11.60;95.60
48579;DHT22;34357;51.948;6.132;2024-02-15T07:00:03;11.60;95.60
48579;DHT22;34357;51.948;6.132;2024-02-15T07:02:33;11.60;95.60
48579;DHT22;34357;51.948;6.132;2024-02-15T07:04:59;11.60;95.70
48579;DHT22;34357;51.948;6.132;2024-02-15T07:07:25;11.60;95.60
48579;DHT22;34357;51.948;6.132;2024-02-15T07:09:51;11.60;95.60
48579;DHT22;34357;51.948;6.132;2024-02-15T07:12:17;11.60;95.70
48579;DHT22;34357;51.948;6.132;2024-02-15T07:14:45;11.60;95.60
48579;DHT22;34357;51.948;6.132;2024-02-15T07:17:12;11.70;95.60
48579;DHT22;34357;51.948;6.132;2024-02-15T07:19:43;11.70;95.60
48579;DHT22;34357;51.948;6.132;2024-02-15T07:22:10;11.70;95.60
48579;DHT22;34357;51.948;6.132;2024-02-15T07:24:36;11.70;95.60
48579;DHT22;34357;51.948;6.132;2024-02-15T07:27:06;11.70;95.60
48579;DHT22;34357;51.948;6.132;2024-02-15T07:29:32;11.70;95.60
48579;DHT22;34357;51.948;6.132;2024-02-15T07:32:00;11.70;95.60
48579;DHT22;34357;51.948;6.132;2024-02-15T07:34:30;11.70;95.50
48579;DHT22;34357;51.948;6.132;2024-02-15T07:36:56;11.70;95.60
48579;DHT22;34357;51.948;6.132;2024-02-15T07:39:23;11.70;95.50
48579;DHT22;34357;51.948;6.132;2024-02-15T07:41:55;11.70;95.50
48579;DHT22;34357;51.948;6.132;2024-02-15T07:44:24;11.70;95.50
48579;DHT22;34357;51.948;6.132;2024-02-15T07:46:50;11.70;95.50
48579;DHT22;34357;51.948;6.132;2024-02-15T07:49:16;11.70;95.50
48579;DHT22;34357;51.948;6.132;2024-02-15T07:51:43;11.70;95.50
48579;DHT22;34357;51.948;6.132;2024-02-15T07:54:09;11.70;95.60
48579;DHT22;34357;51.948;6.132;2024-02-15T07:56:36;11.70;95.60
48579;DHT22;34357;51.948;6.132;2024-02-15T07:59:02;11.70;95.60
48579;DHT22;34357;51.948;6.132;2024-02-15T08:01:28;11.70;95.60
48579;DHT22;34357;51.948;6.132;2024-02-15T08:03:56;11.80;95.60
48579;DHT22;34357;51.948;6.132;2024-02-15T08:06:22;11.70;95.50
48579;DHT22;34357;51.948;6.132;2024-02-15T08:08:51;11.70;95.60
48579;DHT22;34357;51.948;6.132;2024-02-15T08:11:17;11.70;95.60
48579;DHT22;34357;51.948;6.132;2024-02-15T08:13:44;11.80;95.70
48579;DHT22;34357;51.948;6.132;2024-02-15T08:16:24;11.70;95.60
48579;DHT22;34357;51.948;6.132;2024-02-15T08:18:53;11.70;95.60
48579;DHT22;34357;51.948;6.132;2024-02-15T08:21:28;11.70;95.70
48579;DHT22;34357;51.948;6.132;2024-02-15T08:23:55;11.70;95.70
48579;DHT22;34357;51.948;6.132;2024-02-15T08:26:21;11.80;95.70
48579;DHT22;34357;51.948;6.132;2024-02-15T08:28:50;11.80;95.70
48579;DHT22;34357;51.948;6.132;2024-02-15T08:31:16;11.70;95.70
48579;DHT22;34357;51.948;6.132;2024-02-15T08:33:42;11.80;95.70
48579;DHT22;34357;51.948;6.132;2024-02-15T08:36:11;11.80;95.70
48579;DHT22;34357;51.948;6.132;2024-02-15T08:38:39;11.80;95.70
48579;DHT22;34357;51.948;6.132;2024-02-15T08:41:05;11.70;95.70
48579;DHT22;34357;51.948;6.132;2024-02-15T08:43:32;11.80;95.70
48579;DHT22;34357;51.948;6.132;2024-02-15T08:45:58;11.80;95.70
48579;DHT22;34357;51.948;6.132;2024-02-15T08:48:24;11.80;95.70
48579;DHT22;34357;51.948;6.132;2024-02-15T08:50:51;11.80;95.70
48579;DHT22;34357;51.948;6.132;2024-02-15T08:53:17;11.80;95.80
48579;DHT22;34357;51.948;6.132;2024-02-15T08:55:53;11.80;95.80
48579;DHT22;34357;51.948;6.132;2024-02-15T08:58:20;11.90;95.80
48579;DHT22;34357;51.948;6.132;2024-02-15T09:00:47;11.80;95.70
48579;DHT22;34357;51.948;6.132;2024-02-15T09:03:12;11.90;95.90
48579;DHT22;34357;51.948;6.132;2024-02-15T09:05:41;11.80;95.80
48579;DHT22;34357;51.948;6.132;2024-02-15T09:08:07;11.80;95.80
48579;DHT22;34357;51.948;6.132;2024-02-15T09:10:33;11.80;95.80
48579;DHT22;34357;51.948;6.132;2024-02-15T09:12:59;11.80;95.80
48579;DHT22;34357;51.948;6.132;2024-02-15T09:15:25;11.80;95.90
48579;DHT22;34357;51.948;6.132;2024-02-15T09:17:51;11.80;95.90
48579;DHT22;34357;51.948;6.132;2024-02-15T09:20:17;11.80;95.90
48579;DHT22;34357;51.948;6.132;2024-02-15T09:22:52;11.80;95.90
48579;DHT22;34357;51.948;6.132;2024-02-15T09:25:18;11.80;96.00
48579;DHT22;34357;51.948;6.132;2024-02-15T09:27:45;11.80;96.00
48579;DHT22;34357;51.948;6.132;2024-02-15T09:30:14;11.80;96.00
48579;DHT22;34357;51.948;6.132;2024-02-15T09:32:41;11.80;96.00
48579;DHT22;34357;51.948;6.132;2024-02-15T09:35:08;11.80;96.00
48579;DHT22;34357;51.948;6.132;2024-02-15T09:37:35;11.80;96.00
48579;DHT22;34357;51.948;6.132;2024-02-15T09:40:01;11.70;96.00
48579;DHT22;34357;51.948;6.132;2024-02-15T09:42:32;11.70;96.10
48579;DHT22;34357;51.948;6.132;2024-02-15T09:45:01;11.80;96.10
48579;DHT22;34357;51.948;6.132;2024-02-15T09:47:36;11.70;96.10
48579;DHT22;34357;51.948;6.132;2024-02-15T09:50:09;11.80;96.20
48579;DHT22;34357;51.948;6.132;2024-02-15T09:52:52;11.70;96.10
48579;DHT22;34357;51.948;6.132;2024-02-15T09:55:18;11.80;96.20
48579;DHT22;34357;51.948;6.132;2024-02-15T09:57:45;11.80;96.20
48579;DHT22;34357;51.948;6.132;2024-02-15T10:00:14;11.80;96.20
48579;DHT22;34357;51.948;6.132;2024-02-15T10:02:49;11.80;96.20
48579;DHT22;34357;51.948;6.132;2024-02-15T10:05:17;11.90;96.20
48579;DHT22;34357;51.948;6.132;2024-02-15T10:07:43;11.90;96.20
48579;DHT22;34357;51.948;6.132;2024-02-15T10:10:23;11.90;96.20
48579;DHT22;34357;51.948;6.132;2024-02-15T10:12:50;11.90;96.20
48579;DHT22;34357;51.948;6.132;2024-02-15T10:17:55;11.90;96.20
48579;DHT22;34357;51.948;6.132;2024-02-15T10:20:21;11.90;96.20
48579;DHT22;34357;51.948;6.132;2024-02-15T10:22:47;12.00;96.20
48579;DHT22;34357;51.948;6.132;2024-02-15T10:25:14;12.00;96.20
48579;DHT22;34357;51.948;6.132;2024-02-15T10:27:40;12.00;96.20
48579;DHT22;34357;51.948;6.132;2024-02-15T10:30:19;12.00;96.20
48579;DHT22;34357;51.948;6.132;2024-02-15T10:32:46;12.10;96.20
48579;DHT22;34357;51.948;6.132;2024-02-15T10:35:20;12.10;96.20
48579;DHT22;34357;51.948;6.132;2024-02-15T10:37:48;12.20;96.10
48579;DHT22;34357;51.948;6.132;2024-02-15T10:40:20;12.20;96.10
48579;DHT22;34357;51.948;6.132;2024-02-15T10:42:47;12.20;96.00
48579;DHT22;34357;51.948;6.132;2024-02-15T10:45:15;12.20;96.00
48579;DHT22;34357;51.948;6.132;2024-02-15T10:47:46;12.20;95.90
48579;DHT22;34357;51.948;6.132;2024-02-15T10:50:13;12.20;95.90
48579;DHT22;34357;51.948;6.132;2024-02-15T10:52:57;12.20;95.80
48579;DHT22;34357;51.948;6.132;2024-02-15T10:55:38;12.20;95.80
48579;DHT22;34357;51.948;6.132;2024-02-15T10:58:07;12.20;95.70
48579;DHT22;34357;51.948;6.132;2024-02-15T11:00:34;12.20;95.60
48579;DHT22;34357;51.948;6.132;2024-02-15T11:03:08;12.20;95.50
48579;DHT22;34357;51.948;6.132;2024-02-15T11:05:35;12.30;95.40
48579;DHT22;34357;51.948;6.132;2024-02-15T11:08:07;12.30;95.20
48579;DHT22;34357;51.948;6.132;2024-02-15T11:10:37;12.30;95.10
48579;DHT22;34357;51.948;6.132;2024-02-15T11:13:04;12.40;95.00
48579;DHT22;34357;51.948;6.132;2024-02-15T11:18:02;12.40;94.80
48579;DHT22;34357;51.948;6.132;2024-02-15T11:23:00;12.40;94.50
48579;DHT22;34357;51.948;6.132;2024-02-15T11:25:34;12.50;94.50
48579;DHT22;34357;51.948;6.132;2024-02-15T11:30:48;12.50;94.30
48579;DHT22;34357;51.948;6.132;2024-02-15T11:33:31;12.60;94.30
48579;DHT22;34357;51.948;6.132;2024-02-15T11:36:11;12.70;94.20
48579;DHT22;34357;51.948;6.132;2024-02-15T11:38:38;12.90;94.10
48579;DHT22;34357;51.948;6.132;2024-02-15T11:41:09;12.90;94.00
48579;DHT22;34357;51.948;6.132;2024-02-15T11:46:19;12.90;93.70
48579;DHT22;34357;51.948;6.132;2024-02-15T11:48:45;13.00;93.70
48579;DHT22;34357;51.948;6.132;2024-02-15T11:51:35;13.10;93.60
48579;DHT22;34357;51.948;6.132;2024-02-15T11:54:11;13.00;93.20
48579;DHT22;34357;51.948;6.132;2024-02-15T11:59:20;13.20;93.10
48579;DHT22;34357;51.948;6.132;2024-02-15T12:01:57;13.20;93.00
48579;DHT22;34357;51.948;6.132;2024-02-15T12:04:42;13.30;92.90
48579;DHT22;34357;51.948;6.132;2024-02-15T12:07:27;13.40;92.60
48579;DHT22;34357;51.948;6.132;2024-02-15T12:10:18;13.30;92.30
48579;DHT22;34357;51.948;6.132;2024-02-15T12:13:02;13.20;92.30
48579;DHT22;34357;51.948;6.132;2024-02-15T12:15:59;13.30;92.40
48579;DHT22;34357;51.948;6.132;2024-02-15T12:18:44;13.30;92.40
48579;DHT22;34357;51.948;6.132;2024-02-15T12:21:17;13.30;92.30
48579;DHT22;34357;51.948;6.132;2024-02-15T12:23:44;13.40;92.30
48579;DHT22;34357;51.948;6.132;2024-02-15T12:26:11;13.40;92.30
48579;DHT22;34357;51.948;6.132;2024-02-15T12:28:41;13.50;91.90
48579;DHT22;34357;51.948;6.132;2024-02-15T12:31:09;13.50;91.90
48579;DHT22;34357;51.948;6.132;2024-02-15T12:33:35;13.50;91.90
48579;DHT22;34357;51.948;6.132;2024-02-15T12:36:04;13.50;92.00
48579;DHT22;34357;51.948;6.132;2024-02-15T12:38:34;13.50;91.90
48579;DHT22;34357;51.948;6.132;2024-02-15T12:41:04;13.60;91.40
48579;DHT22;34357;51.948;6.132;2024-02-15T12:43:30;13.60;91.30
48579;DHT22;34357;51.948;6.132;2024-02-15T12:45:55;13.60;90.80
48579;DHT22;34357;51.948;6.132;2024-02-15T12:48:24;13.70;90.70
48579;DHT22;34357;51.948;6.132;2024-02-15T12:50:50;13.70;90.50
48579;DHT22;34357;51.948;6.132;2024-02-15T12:53:24;13.80;90.00
48579;DHT22;34357;51.948;6.132;2024-02-15T12:55:54;13.70;89.80
48579;DHT22;34357;51.948;6.132;2024-02-15T12:58:20;13.90;89.70
48579;DHT22;34357;51.948;6.132;2024-02-15T13:00:46;13.90;89.40
48579;DHT22;34357;51.948;6.132;2024-02-15T13:03:12;13.80;89.10
48579;DHT22;34357;51.948;6.132;2024-02-15T13:05:40;13.90;88.80
48579;DHT22;34357;51.948;6.132;2024-02-15T13:08:06;13.80;88.80
48579;DHT22;34357;51.948;6.132;2024-02-15T13:10:36;13.80;89.00
48579;DHT22;34357;51.948;6.132;2024-02-15T13:13:02;13.70;89.20
48579;DHT22;34357;51.948;6.132;2024-02-15T13:15:28;13.70;89.20
48579;DHT22;34357;51.948;6.132;2024-02-15T13:17:59;13.60;89.30
48579;DHT22;34357;51.948;6.132;2024-02-15T13:20:25;13.60;89.50
48579;DHT22;34357;51.948;6.132;2024-02-15T13:23:18;13.60;89.40
48579;DHT22;34357;51.948;6.132;2024-02-15T13:25:49;13.60;89.60
48579;DHT22;34357;51.948;6.132;2024-02-15T13:28:16;13.50;89.60
48579;DHT22;34357;51.948;6.132;2024-02-15T13:30:42;13.60;89.90
48579;DHT22;34357;51.948;6.132;2024-02-15T13:33:11;13.60;89.80
48579;DHT22;34357;51.948;6.132;2024-02-15T13:35:38;13.60;89.70
48579;DHT22;34357;51.948;6.132;2024-02-15T13:38:04;13.60;89.80
48579;DHT22;34357;51.948;6.132;2024-02-15T13:40:29;13.60;89.80
48579;DHT22;34357;51.948;6.132;2024-02-15T13:42:59;13.50;89.70
48579;DHT22;34357;51.948;6.132;2024-02-15T13:45:32;13.60;89.70
48579;DHT22;34357;51.948;6.132;2024-02-15T13:48:01;13.60;89.80
48579;DHT22;34357;51.948;6.132;2024-02-15T13:50:29;13.60;89.60
48579;DHT22;34357;51.948;6.132;2024-02-15T13:52:56;13.70;89.60
48579;DHT22;34357;51.948;6.132;2024-02-15T13:55:23;13.70;89.30
48579;DHT22;34357;51.948;6.132;2024-02-15T13:57:51;13.70;89.20
48579;DHT22;34357;51.948;6.132;2024-02-15T14:00:19;13.80;88.90
48579;DHT22;34357;51.948;6.132;2024-02-15T14:02:52;13.80;89.20
48579;DHT22;34357;51.948;6.132;2024-02-15T14:05:23;13.80;89.20
48579;DHT22;34357;51.948;6.132;2024-02-15T14:07:56;13.90;89.10
48579;DHT22;34357;51.948;6.132;2024-02-15T14:10:27;13.90;89.20
48579;DHT22;34357;51.948;6.132;2024-02-15T14:12:53;13.90;89.20
48579;DHT22;34357;51.948;6.132;2024-02-15T14:15:24;14.00;89.40
48579;DHT22;34357;51.948;6.132;2024-02-15T14:17:50;14.00;89.40
48579;DHT22;34357;51.948;6.132;2024-02-15T14:20:16;14.00;89.50
48579;DHT22;34357;51.948;6.132;2024-02-15T14:22:44;14.10;89.40
48579;DHT22;34357;51.948;6.132;2024-02-15T14:25:10;14.10;89.70
48579;DHT22;34357;51.948;6.132;2024-02-15T14:27:39;14.20;89.70
48579;DHT22;34357;51.948;6.132;2024-02-15T14:30:07;14.30;89.30
48579;DHT22;34357;51.948;6.132;2024-02-15T14:32:51;14.40;89.10
48579;DHT22;34357;51.948;6.132;2024-02-15T14:35:33;14.40;89.10
48579;DHT22;34357;51.948;6.132;2024-02-15T14:38:09;14.40;89.00
48579;DHT22;34357;51.948;6.132;2024-02-15T14:40:44;14.50;89.00
48579;DHT22;34357;51.948;6.132;2024-02-15T14:43:11;14.50;89.20
48579;DHT22;34357;51.948;6.132;2024-02-15T14:45:38;14.50;88.70
48579;DHT22;34357;51.948;6.132;2024-02-15T14:48:07;14.50;88.40
48579;DHT22;34357;51.948;6.132;2024-02-15T14:50:37;14.60;87.90
48579;DHT22;34357;51.948;6.132;2024-02-15T14:53:03;14.50;87.90
48579;DHT22;34357;51.948;6.132;2024-02-15T14:55:28;14.50;87.90
48579;DHT22;34357;51.948;6.132;2024-02-15T14:57:57;14.40;88.20
48579;DHT22;34357;51.948;6.132;2024-02-15T15:00:23;14.50;88.00
48579;DHT22;34357;51.948;6.132;2024-02-15T15:02:52;14.50;87.80
48579;DHT22;34357;51.948;6.132;2024-02-15T15:05:18;14.50;87.90
48579;DHT22;34357;51.948;6.132;2024-02-15T15:08:03;14.40;87.90
48579;DHT22;34357;51.948;6.132;2024-02-15T15:10:48;14.50;87.90
48579;DHT22;34357;51.948;6.132;2024-02-15T15:13:33;14.50;87.80
48579;DHT22;34357;51.948;6.132;2024-02-15T15:16:00;14.60;87.10
48579;DHT22;34357;51.948;6.132;2024-02-15T15:18:26;14.60;87.30
48579;DHT22;34357;51.948;6.132;2024-02-15T15:20:52;14.60;87.20
48579;DHT22;34357;51.948;6.132;2024-02-15T15:23:18;14.50;87.60
48579;DHT22;34357;51.948;6.132;2024-02-15T15:25:43;14.60;87.10
48579;DHT22;34357;51.948;6.132;2024-02-15T15:28:09;14.60;87.10
48579;DHT22;34357;51.948;6.132;2024-02-15T15:30:35;14.50;87.30
48579;DHT22;34357;51.948;6.132;2024-02-15T15:33:03;14.60;87.10
48579;DHT22;34357;51.948;6.132;2024-02-15T15:35:29;14.60;86.90
48579;DHT22;34357;51.948;6.132;2024-02-15T15:37:58;14.50;86.90
48579;DHT22;34357;51.948;6.132;2024-02-15T15:40:24;14.40;87.30
48579;DHT22;34357;51.948;6.132;2024-02-15T15:42:51;14.50;87.20
48579;DHT22;34357;51.948;6.132;2024-02-15T15:45:17;14.50;86.80
48579;DHT22;34357;51.948;6.132;2024-02-15T15:47:43;14.50;87.10
48579;DHT22;34357;51.948;6.132;2024-02-15T15:50:09;14.50;87.10
48579;DHT22;34357;51.948;6.132;2024-02-15T15:52:38;14.50;87.10
48579;DHT22;34357;51.948;6.132;2024-02-15T15:55:04;14.40;87.20
48579;DHT22;34357;51.948;6.132;2024-02-15T15:57:40;14.40;87.30